Time,TemperatureF,DewpointF,PressureIn,WindDirection,WindDirectionDegrees,WindSpeedMPH,WindSpeedGustMPH,Humidity,HourlyPrecipIn,Conditions,Clouds,dailyrainin,SolarRadiationWatts/m^2,SoftwareType,DateUTC
2013-05-05 00:00:00,49.0,24.0,-100.00,NNE,12,5.0,-999.0,37,-99.99,,,-99.99,0.000000,,2013-05-05 06:00:00,
2013-05-05 00:52:00,49.0,24.0,-100.00,NNE,12,5.0,-999.0,37,-99.99,,,-99.99,0.000000,,2013-05-05 06:52:00,
2013-05-05 02:00:00,48.0,26.0,-100.00,NNW,342,3.0,6.0,41,-99.99,,,-99.99,0.000000,,2013-05-05 08:00:00,
2013-05-05 03:00:00,49.0,25.0,-100.00,East,90,1.0,-999.0,40,-99.99,,,-99.99,0.000000,,2013-05-05 09:00:00,
2013-05-05 03:52:00,49.0,25.0,-100.00,East,90,1.0,-999.0,40,-99.99,,,-99.99,0.000000,,2013-05-05 09:52:00,
2013-05-05 04:00:00,47.0,27.0,-100.00,North,4,2.0,-999.0,45,-99.99,,,-99.99,0.000000,,2013-05-05 10:00:00,
2013-05-05 04:53:00,47.0,27.0,-100.00,North,4,2.0,-999.0,45,-99.99,,,-99.99,0.000000,,2013-05-05 10:53:00,
2013-05-05 05:00:00,48.0,28.0,-100.00,NNW,333,3.0,-999.0,46,-99.99,,,-99.99,0.000000,,2013-05-05 11:00:00,
2013-05-05 05:52:00,48.0,28.0,-100.00,NNW,333,3.0,-999.0,46,-99.99,,,-99.99,0.000000,,2013-05-05 11:52:00,
2013-05-05 06:00:00,43.0,29.0,-100.00,SSE,158,3.0,-999.0,58,-99.99,,,-99.99,0.000000,,2013-05-05 12:00:00,
2013-05-05 06:52:00,43.0,29.0,-100.00,SSE,158,3.0,-999.0,58,-99.99,,,-99.99,0.000000,,2013-05-05 12:52:00,
2013-05-05 08:00:00,43.0,31.0,-100.00,SE,133,3.0,5.0,63,-99.99,,,-99.99,8.200000,,2013-05-05 14:00:00,
2013-05-05 09:00:00,54.0,32.0,-100.00,SSW,194,6.0,-999.0,43,-99.99,,,-99.99,241.699997,,2013-05-05 15:00:00,
2013-05-05 09:53:00,54.0,32.0,-100.00,SSW,194,6.0,-999.0,43,-99.99,,,-99.99,241.699997,,2013-05-05 15:53:00,
2013-05-05 10:00:00,62.0,27.0,-100.00,South,173,4.0,-999.0,27,-99.99,,,-99.99,390.700012,,2013-05-05 16:00:00,
2013-05-05 10:53:00,62.0,27.0,-100.00,South,173,4.0,-999.0,27,-99.99,,,-99.99,390.700012,,2013-05-05 16:53:00,
2013-05-05 11:00:00,65.0,24.0,-100.00,SSW,206,3.0,-999.0,21,-99.99,,,-99.99,706.400024,,2013-05-05 17:00:00,
2013-05-05 11:52:00,65.0,24.0,-100.00,SSW,206,3.0,-999.0,21,-99.99,,,-99.99,706.400024,,2013-05-05 17:52:00,
2013-05-05 12:00:00,68.0,22.0,-100.00,SSW,204,6.0,-999.0,17,-99.99,,,-99.99,875.000000,,2013-05-05 18:00:00,
2013-05-05 12:52:00,68.0,22.0,-100.00,SSW,204,6.0,-999.0,17,-99.99,,,-99.99,875.000000,,2013-05-05 18:52:00,
2013-05-05 13:00:00,71.0,14.0,-100.00,SW,221,13.0,-999.0,11,-99.99,,,-99.99,968.000000,,2013-05-05 19:00:00,
2013-05-05 13:52:00,71.0,14.0,-100.00,SW,221,13.0,-999.0,11,-99.99,,,-99.99,968.000000,,2013-05-05 19:52:00,
2013-05-05 14:00:00,73.0,19.0,-100.00,SW,227,11.0,-999.0,13,-99.99,,,-99.99,973.000000,,2013-05-05 20:00:00,
2013-05-05 14:52:00,73.0,19.0,-100.00,SW,227,11.0,-999.0,13,-99.99,,,-99.99,973.000000,,2013-05-05 20:52:00,
2013-05-05 15:00:00,74.0,16.0,-100.00,SW,230,10.0,-999.0,11,-99.99,,,-99.99,920.000000,,2013-05-05 21:00:00,
2013-05-05 15:53:00,74.0,16.0,-100.00,SW,230,10.0,-999.0,11,-99.99,,,-99.99,920.000000,,2013-05-05 21:53:00,
2013-05-05 16:00:00,74.0,14.0,-100.00,SW,225,9.0,-999.0,10,-99.99,,,-99.99,809.000000,,2013-05-05 22:00:00,
2013-05-05 16:52:00,74.0,14.0,-100.00,SW,225,9.0,-999.0,10,-99.99,,,-99.99,809.000000,,2013-05-05 22:52:00,
2013-05-05 17:00:00,72.0,15.0,-100.00,SSE,168,8.0,-999.0,11,-99.99,,,-99.99,673.000000,,2013-05-05 23:00:00,
2013-05-05 17:52:00,72.0,15.0,-100.00,SSE,168,8.0,-999.0,11,-99.99,,,-99.99,673.000000,,2013-05-05 23:52:00,
2013-05-05 18:00:00,70.0,19.0,-100.00,ENE,71,10.0,-999.0,14,-99.99,,,-99.99,178.800003,,2013-05-06 00:00:00,
2013-05-05 18:52:00,70.0,19.0,-100.00,ENE,71,10.0,-999.0,14,-99.99,,,-99.99,178.800003,,2013-05-06 00:52:00,
2013-05-05 19:00:00,67.0,18.0,-100.00,ENE,62,9.0,-999.0,15,-99.99,,,-99.99,104.900002,,2013-05-06 01:00:00,
2013-05-05 19:52:00,67.0,18.0,-100.00,ENE,62,9.0,-999.0,15,-99.99,,,-99.99,104.900002,,2013-05-06 01:52:00,
2013-05-05 21:00:00,65.0,22.0,-100.00,WSW,252,5.0,11.0,19,-99.99,,,-99.99,31.000000,,2013-05-06 03:00:00,
2013-05-05 22:00:00,58.0,26.0,-100.00,SE,135,4.0,-999.0,30,-99.99,,,-99.99,0.000000,,2013-05-06 04:00:00,
2013-05-05 22:53:00,58.0,26.0,-100.00,SE,135,4.0,-999.0,30,-99.99,,,-99.99,0.000000,,2013-05-06 04:53:00,
2013-05-05 23:00:00,57.0,22.0,-100.00,South,169,9.0,-999.0,26,-99.99,,,-99.99,0.000000,,2013-05-06 05:00:00,
2013-05-05 23:52:00,57.0,22.0,-100.00,South,169,9.0,-999.0,26,-99.99,,,-99.99,0.000000,,2013-05-06 05:52:00,